• Join FlightAware (Why Join?)
  • Login
  • US Flag 
03:26PM EDT


 

Airport Tracker/Info


-or-


 

Live Flight TrackerFlight Track Log ✈ N2103M ✈ 06-Jul-2013 ✈ KOMH - 7G0

Flight Track Log - Related Links

Times and Time Zones

All times are in EDT time to prevent confusion due to time zone crossing. See the N2103M flight status page for this flight to view local times or setup timezone preferences in your user account.

Time Position Orientation Groundspeed Altitude Reporting Facility
EDT Latitude Longitude Course Direction KTS MPH feet Rate Location/Type
12:01PM 38.2833 -78.0833 360° North 118 136 2,200  Level Potomac TRACON
12:02PM 38.3167 -78.0833 360° North 115 132 2,900 600 Climbing Potomac TRACON
12:03PM 38.3500 -78.0833 360° North 114 131 3,400 480 Climbing Potomac TRACON
12:04PM 38.3667 -78.1000 322° Northwest 115 132 3,900 480 Climbing Potomac TRACON
12:05PM 38.4000 -78.1167 339° North 113 130 4,400 480 Climbing Potomac TRACON
12:06PM 38.4333 -78.1167 360° North 114 131 4,900 420 Climbing Potomac TRACON
12:07PM 38.4667 -78.1333 339° North 111 128 5,300 360 Climbing Potomac TRACON
12:08PM 38.5000 -78.1333 360° North 115 132 5,600 360 Climbing Potomac TRACON
12:09PM 38.5167 -78.1500 322° Northwest 117 135 6,000 360 Climbing Potomac TRACON
12:10PM 38.5500 -78.1500 360° North 114 131 6,400 360 Climbing Potomac TRACON
12:11PM 38.6000 -78.1500 360° North 120 138 6,800 300 Climbing Potomac TRACON
12:12PM 38.6167 -78.1667 322° Northwest 115 132 7,100 360 Climbing Potomac TRACON
12:13PM 38.6500 -78.1667 360° North 120 138 7,500 300 Climbing Potomac TRACON
12:14PM 38.6833 -78.1833 339° North 118 136 7,800 300 Climbing Potomac TRACON
12:15PM 38.7167 -78.1833 360° North 122 140 8,100 120 Climbing Potomac TRACON
12:16PM 38.7500 -78.2000 339° North 125 144 8,100  Level Potomac TRACON
12:17PM 38.8000 -78.2000 360° North 141 162 8,100  Level Potomac TRACON
12:18PM 38.8333 -78.2167 339° North 143 165 8,100 180 Level Potomac TRACON
12:19PM 38.8667 -78.2333 339° North 124 143 8,500 360 Climbing Potomac TRACON
12:20PM 38.9000 -78.2333 360° North 117 135 8,800 300 Climbing Potomac TRACON
12:21PM 38.9333 -78.2500 339° North 119 137 9,100 180 Climbing Potomac TRACON
12:22PM 38.9567 -78.2611 340° North 135 155 9,200  Climbing Washington Center
12:23PM 38.9919 -78.2758 342° North 135 155 9,100 -60 Descending Washington Center
12:24PM 39.0228 -78.2903 340° North 135 155 9,100  Level Washington Center
12:25PM 39.0558 -78.3075 338° Northwest 129 148 9,100  Level Washington Center
12:26PM 39.0867 -78.3219 340° North 124 143 9,100  Level Washington Center
12:27PM 39.1197 -78.3367 341° North 124 143 9,200  Climbing Washington Center
12:28PM 39.1486 -78.3483 343° North 124 143 9,200 -60 Level Washington Center
12:29PM 39.1819 -78.3550 351° North 119 137 9,100  Descending Washington Center
12:30PM 39.2150 -78.3617 351° North 114 131 9,200  Climbing Washington Center
12:31PM 39.2483 -78.3683 351° North 114 131 9,200  Level Washington Center
12:32PM 39.2836 -78.3750 352° North 119 137 9,300 -60 Climbing Washington Center
12:33PM 39.3186 -78.3844 348° North 125 144 9,100 -240 Descending Washington Center
12:34PM 39.3542 -78.3911 352° North 125 144 8,900  Descending Washington Center
12:35PM 39.3894 -78.3897 North 125 144 9,100 60 Climbing Washington Center
12:36PM 39.4231 -78.3803 12° North 125 144 9,100  Level Washington Center
12:38PM 39.5100 -78.3686 North 130 150 9,200  Climbing Cleveland Center
12:39PM 39.5431 -78.3622 North 130 150 9,100 -60 Descending Cleveland Center
12:40PM 39.5825 -78.3556 North 130 150 9,100  Level Cleveland Center
12:41PM 39.6200 -78.3489 North 130 150 9,100  Level Cleveland Center
12:42PM 39.6531 -78.3397 12° North 130 150 9,200  Climbing Cleveland Center
12:43PM 39.6906 -78.3306 11° North 130 150 9,200 -60 Level Cleveland Center
12:44PM 39.7281 -78.3264 North 130 150 9,100 -120 Descending Cleveland Center
12:45PM 39.7653 -78.3172 11° North 130 150 9,000  Descending Cleveland Center
12:46PM 39.8028 -78.3133 North 130 150 9,200 60 Climbing Cleveland Center
12:47PM 39.8381 -78.3067 North 125 144 9,200  Level Cleveland Center
12:48PM 39.8756 -78.3000 North 125 144 9,200  Level Cleveland Center
12:49PM 39.9106 -78.2906 12° North 125 144 9,200  Level Cleveland Center
12:50PM 39.9439 -78.2814 12° North 125 144 9,200 -60 Level Cleveland Center
12:51PM 39.9853 -78.2744 North 125 144 9,100 -120 Descending Cleveland Center
12:52PM 40.0186 -78.2681 North 125 144 9,000  Descending Cleveland Center
12:53PM 40.0581 -78.2639 North 125 144 9,100 60 Climbing Cleveland Center
12:54PM 40.0956 -78.2600 North 125 144 9,200  Climbing Cleveland Center
12:55PM 40.1289 -78.2533 North 125 144 9,200  Level Cleveland Center
12:56PM 40.1642 -78.2467 North 125 144 9,200  Level Cleveland Center
12:57PM 40.1994 -78.2400 North 125 144 9,200 -60 Level Cleveland Center
12:58PM 40.2389 -78.2331 North 125 144 9,100  Descending Cleveland Center
12:59PM 40.2742 -78.2239 11° North 125 144 9,200  Climbing Cleveland Center
01:00PM 40.3094 -78.2169 North 125 144 9,100 -60 Descending Cleveland Center
01:01PM 40.3469 -78.2103 North 125 144 9,100  Level Cleveland Center
01:02PM 40.3842 -78.2008 11° North 125 144 9,100 -60 Level Cleveland Center
01:03PM 40.4311 -78.1856 14° North 124 143 9,000  Descending New York Center
01:04PM 40.4667 -78.1811 North 124 143 9,100 60 Climbing New York Center
01:05PM 40.5003 -78.1767 North 124 143 9,200  Climbing New York Center
01:06PM 40.5361 -78.1722 North 124 143 9,100 -120 Descending New York Center
01:07PM 40.5733 -78.1761 355° North 124 143 9,000 -60 Descending New York Center
01:08PM 40.6086 -78.1800 355° North 124 143 9,000  Level New York Center
01:09PM 40.6397 -78.1806 359° North 119 137 9,100  Climbing New York Center
01:10PM 40.6753 -78.1817 359° North 119 137 9,100 -60 Level New York Center
01:11PM 40.7092 -78.1717 13° North 124 143 9,000  Descending New York Center
01:12PM 40.7439 -78.1508 24° Northeast 124 143 9,100  Climbing New York Center
01:13PM 40.7783 -78.1325 22° Northeast 130 150 9,100  Level New York Center
01:14PM 40.8189 -78.1150 18° North 130 150 9,100  Level New York Center
01:15PM 40.8553 -78.1025 15° North 130 150 9,100 -60 Level New York Center
01:16PM 40.8933 -78.0928 11° North 130 150 9,000 -60 Descending New York Center
01:17PM 40.9314 -78.0858 North 130 150 9,000  Level New York Center
01:18PM 40.9653 -78.0758 13° North 124 143 9,000  Level New York Center
01:19PM 40.9983 -78.0658 13° North 124 143 9,100  Climbing Cleveland Center
01:20PM 41.0297 -78.0672 358° North 124 143 9,100  Level Cleveland Center
01:21PM 41.0672 -78.0714 355° North 124 143 9,100  Level Cleveland Center
01:22PM 41.1008 -78.0728 358° North 124 143 9,100 -60 Level Cleveland Center
01:23PM 41.1361 -78.0658 North 124 143 9,000  Descending Cleveland Center
01:24PM 41.1733 -78.0589 North 124 143 9,100  Climbing Cleveland Center
01:25PM 41.2067 -78.0550 North 124 143 9,100  Level Cleveland Center
01:26PM 41.2419 -78.0453 12° North 124 143 9,100  Level Cleveland Center
01:27PM 41.2772 -78.0411 North 124 143 9,200  Climbing Cleveland Center
01:28PM 41.3106 -78.0344 North 124 143 9,100 -120 Descending Cleveland Center
01:29PM 41.3478 -78.0244 11° North 124 143 9,000  Descending Cleveland Center
01:30PM 41.3808 -78.0178 North 124 143 9,100  Climbing Cleveland Center
01:31PM 41.4161 -78.0108 North 124 143 9,100  Level Cleveland Center
01:32PM 41.4494 -78.0039 North 124 143 9,100  Level Cleveland Center
01:33PM 41.4847 -77.9942 12° North 124 143 9,100  Level Cleveland Center
01:34PM 41.5158 -77.9903 North 124 143 9,100  Level Cleveland Center
01:35PM 41.5511 -77.9833 North 124 143 9,100  Level Cleveland Center
01:36PM 41.5864 -77.9736 12° North 124 143 9,100  Level Cleveland Center
01:37PM 41.6217 -77.9664 North 124 143 9,200  Climbing Cleveland Center
01:38PM 41.6592 -77.9622 North 124 143 9,200 60 Level Cleveland Center
01:39PM 41.6903 -77.9553 North 119 137 9,400 240 Climbing Cleveland Center
01:40PM 41.7172 -77.9486 10° North 112 129 9,700 240 Climbing Cleveland Center
01:41PM 41.7461 -77.9419 10° North 100 115 9,900 240 Climbing Cleveland Center
01:42PM 41.7753 -77.9353 10° North 100 115 10,200 180 Climbing Cleveland Center
01:43PM 41.8064 -77.9339 North 105 121 10,300  Climbing Cleveland Center
01:44PM 41.8397 -77.9297 North 105 121 10,200 -120 Descending Cleveland Center
01:45PM 41.8750 -77.9283 North 110 127 10,100 -180 Descending Cleveland Center
01:46PM 41.9189 -77.9264 North 128 147 9,900 -120 Descending Cleveland Center
01:47PM 41.9542 -77.9222 North 133 153 9,900  Level Cleveland Center
01:48PM 41.9875 -77.9153 North 127 146 10,000  Climbing Cleveland Center
01:49PM 42.0225 -77.9025 15° North 122 140 10,000  Level Cleveland Center
01:50PM 42.0536 -77.8928 13° North 122 140 10,100 60 Climbing Cleveland Center
01:51PM 42.0886 -77.8803 15° North 122 140 10,200  Climbing Cleveland Center
01:52PM 42.1239 -77.8703 12° North 122 140 10,200 -60 Level Cleveland Center
01:53PM 42.1569 -77.8550 19° North 122 140 10,100 -60 Descending Cleveland Center
01:54PM 42.1900 -77.8422 16° North 122 140 10,100  Level Cleveland Center
01:55PM 42.2253 -77.8381 North 122 140 10,100  Level Cleveland Center
01:56PM 42.2586 -77.8336 North 122 140 10,100  Level Cleveland Center
01:57PM 42.2919 -77.8322 North 122 140 10,100  Level Cleveland Center
01:58PM 42.3086 -77.8289 North 119 137 10,100  Level Cleveland Center
01:59PM 42.3419 -77.8272 North 121 139 10,100  Level Cleveland Center
02:00PM 42.3731 -77.8203 North 123 142 10,100  Level Cleveland Center
02:00PM 42.3936 -77.8167 North 122 140 10,100 -240 Level Cleveland Center
02:01PM 42.4103 -77.8158 North 131 151 9,900 -180 Descending Cleveland Center
02:02PM 42.4478 -77.8114 North 129 148 9,900 60 Level Cleveland Center
02:03PM 42.4789 -77.8100 North 110 127 10,100 60 Climbing Cleveland Center
02:04PM 42.5122 -77.8086 North 113 130 10,100 -300 Level Cleveland Center
02:05PM 42.5497 -77.8069 North 138 159 9,600 -480 Descending Cleveland Center
02:06PM 42.5872 -77.8081 359° North 142 163 9,200 -600 Descending Cleveland Center
02:07PM 42.6289 -77.8006 North 146 168 8,500 -780 Descending Cleveland Center
02:08PM 42.6789 -77.7983 North 154 177 7,600 -840 Descending Cleveland Center
02:09PM 42.7142 -77.7883 12° North 156 180 6,900 -840 Descending Cleveland Center
02:10PM 42.7581 -77.7978 351° North 137 158 6,000 -900 Descending Cleveland Center
02:11PM 42.7978 -77.8072 350° North 145 167 5,100 -600 Descending Cleveland Center
02:12PM 42.8336 -77.8169 349° North 125 144 4,900 -360 Descending Cleveland Center
02:13PM 42.8714 -77.8267 349° North 128 147 4,400 -540 Descending Cleveland Center
02:14PM 42.9028 -77.8394 343° North 130 150 3,800 -600 Descending Cleveland Center
02:15PM 42.9406 -77.8519 346° North 126 145 3,300 -480 Descending Cleveland Center
02:16PM 42.9786 -77.8644 346° North 119 137 2,900 -180 Descending Cleveland Center
02:17PM 43.0036 -77.8719 348° North 91 105 3,000  Climbing Cleveland Center
02:18PM 43.0331 -77.8764 354° North 101 116 2,900 -60 Descending Cleveland Center
02:19PM 43.0581 -77.8781 357° North 91 105 2,900  Level Cleveland Center
02:20PM 43.0833 -77.8914 339° North 96 110 2,900  Level Cleveland Center